sensor_id;sensor_type;location;lat;lon;timestamp;pressure;altitude;pressure_sealevel;temperature;humidity
7075;BME280;3578;51.568;6.932;2023-03-22T00:00:56;52003.75;;;-144.14;96.24
7075;BME280;3578;51.568;6.932;2023-03-22T00:03:23;51999.75;;;-144.14;96.00
7075;BME280;3578;51.568;6.932;2023-03-22T00:05:56;52079.88;;;-144.14;95.29
7075;BME280;3578;51.568;6.932;2023-03-22T00:08:24;52095.91;;;-144.14;95.02
7075;BME280;3578;51.568;6.932;2023-03-22T00:10:52;52087.91;;;-144.14;94.74
7075;BME280;3578;51.568;6.932;2023-03-22T00:13:21;52067.88;;;-144.14;94.34
7075;BME280;3578;51.568;6.932;2023-03-22T00:15:49;52117.94;;;-144.14;94.17
7075;BME280;3578;51.568;6.932;2023-03-22T00:18:17;52095.91;;;-144.14;94.10
7075;BME280;3578;51.568;6.932;2023-03-22T00:20:48;52055.84;;;-144.14;94.25
7075;BME280;3578;51.568;6.932;2023-03-22T00:23:16;52123.97;;;-144.14;93.93
7075;BME280;3578;51.568;6.932;2023-03-22T00:25:44;52150.00;;;-144.14;93.62
7075;BME280;3578;51.568;6.932;2023-03-22T00:28:12;52127.97;;;-144.14;93.63
7075;BME280;3578;51.568;6.932;2023-03-22T00:30:49;52135.97;;;-144.14;93.72
7075;BME280;3578;51.568;6.932;2023-03-22T00:33:17;52140.00;;;-144.14;93.83
7075;BME280;3578;51.568;6.932;2023-03-22T00:35:48;52107.94;;;-144.14;94.08
7075;BME280;3578;51.568;6.932;2023-03-22T00:38:15;52107.94;;;-144.14;94.24
7075;BME280;3578;51.568;6.932;2023-03-22T00:40:43;52101.91;;;-144.14;94.45
7075;BME280;3578;51.568;6.932;2023-03-22T00:43:10;52121.94;;;-144.14;94.66
7075;BME280;3578;51.568;6.932;2023-03-22T00:45:37;52105.94;;;-144.14;94.22
7075;BME280;3578;51.568;6.932;2023-03-22T00:48:08;52099.91;;;-144.14;94.11
7075;BME280;3578;51.568;6.932;2023-03-22T00:50:37;52095.91;;;-144.14;94.36
7075;BME280;3578;51.568;6.932;2023-03-22T00:53:04;52127.97;;;-144.14;94.52
7075;BME280;3578;51.568;6.932;2023-03-22T00:55:32;52144.00;;;-144.14;94.35
7075;BME280;3578;51.568;6.932;2023-03-22T00:57:59;52115.94;;;-144.14;94.31
7075;BME280;3578;51.568;6.932;2023-03-22T01:00:26;52107.94;;;-144.14;94.52
7075;BME280;3578;51.568;6.932;2023-03-22T01:02:53;52111.94;;;-144.14;94.51
7075;BME280;3578;51.568;6.932;2023-03-22T01:05:25;52117.94;;;-144.14;94.19
7075;BME280;3578;51.568;6.932;2023-03-22T01:07:53;52144.00;;;-144.14;93.98
7075;BME280;3578;51.568;6.932;2023-03-22T01:10:22;52152.00;;;-144.14;93.81
7075;BME280;3578;51.568;6.932;2023-03-22T01:12:49;52172.03;;;-144.14;93.70
7075;BME280;3578;51.568;6.932;2023-03-22T01:15:16;52140.00;;;-144.14;93.68
7075;BME280;3578;51.568;6.932;2023-03-22T01:17:43;52176.03;;;-144.14;93.57
7075;BME280;3578;51.568;6.932;2023-03-22T01:20:11;52174.03;;;-144.14;93.21
7075;BME280;3578;51.568;6.932;2023-03-22T01:22:40;52182.06;;;-144.14;93.00
7075;BME280;3578;51.568;6.932;2023-03-22T01:25:08;52218.13;;;-144.14;92.99
7075;BME280;3578;51.568;6.932;2023-03-22T01:27:36;52214.13;;;-144.14;93.02
7075;BME280;3578;51.568;6.932;2023-03-22T01:30:04;52154.00;;;-144.14;93.14
7075;BME280;3578;51.568;6.932;2023-03-22T01:32:32;52178.06;;;-144.14;93.18
7075;BME280;3578;51.568;6.932;2023-03-22T01:34:59;52198.09;;;-144.14;93.06
7075;BME280;3578;51.568;6.932;2023-03-22T01:37:26;52168.03;;;-144.14;92.82
7075;BME280;3578;51.568;6.932;2023-03-22T01:39:54;52160.03;;;-144.14;92.70
7075;BME280;3578;51.568;6.932;2023-03-22T01:42:22;52208.09;;;-144.14;92.32
7075;BME280;3578;51.568;6.932;2023-03-22T01:45:42;52208.09;;;-144.14;92.48
7075;BME280;3578;51.568;6.932;2023-03-22T01:48:18;52212.09;;;-144.14;92.61
7075;BME280;3578;51.568;6.932;2023-03-22T01:50:54;52204.09;;;-144.14;92.34
7075;BME280;3578;51.568;6.932;2023-03-22T01:53:25;52236.16;;;-144.14;92.29
7075;BME280;3578;51.568;6.932;2023-03-22T01:55:55;52228.13;;;-144.14;92.21
7075;BME280;3578;51.568;6.932;2023-03-22T01:58:23;52232.16;;;-144.14;91.93
7075;BME280;3578;51.568;6.932;2023-03-22T02:00:52;52238.16;;;-144.14;91.89
7075;BME280;3578;51.568;6.932;2023-03-22T02:03:26;52250.19;;;-144.14;91.62
7075;BME280;3578;51.568;6.932;2023-03-22T02:05:58;52260.19;;;-144.14;91.56
7075;BME280;3578;51.568;6.932;2023-03-22T02:08:26;52252.19;;;-144.14;91.40
7075;BME280;3578;51.568;6.932;2023-03-22T02:10:55;52248.19;;;-144.14;91.61
7075;BME280;3578;51.568;6.932;2023-03-22T02:13:46;52228.13;;;-144.14;91.69
7075;BME280;3578;51.568;6.932;2023-03-22T02:16:28;52226.13;;;-144.14;91.74
7075;BME280;3578;51.568;6.932;2023-03-22T02:19:24;52238.16;;;-144.14;91.73
7075;BME280;3578;51.568;6.932;2023-03-22T02:22:44;52208.09;;;-144.14;92.19
7075;BME280;3578;51.568;6.932;2023-03-22T02:28:44;52194.09;;;-144.14;93.02
7075;BME280;3578;51.568;6.932;2023-03-22T02:31:33;52152.00;;;-144.14;93.81
7075;BME280;3578;51.568;6.932;2023-03-22T02:34:56;52144.00;;;-144.14;94.02
7075;BME280;3578;51.568;6.932;2023-03-22T02:38:17;52127.97;;;-144.14;93.96
7075;BME280;3578;51.568;6.932;2023-03-22T02:40:54;52180.06;;;-144.14;94.06
7075;BME280;3578;51.568;6.932;2023-03-22T02:43:30;52127.97;;;-144.14;94.14
7075;BME280;3578;51.568;6.932;2023-03-22T02:46:06;52123.97;;;-144.14;94.28
7075;BME280;3578;51.568;6.932;2023-03-22T02:48:41;52127.97;;;-144.14;94.65
7075;BME280;3578;51.568;6.932;2023-03-22T02:51:16;52111.94;;;-144.14;94.59
7075;BME280;3578;51.568;6.932;2023-03-22T02:53:47;52091.91;;;-144.14;94.60
7075;BME280;3578;51.568;6.932;2023-03-22T02:56:22;52115.94;;;-144.14;94.89
7075;BME280;3578;51.568;6.932;2023-03-22T02:58:53;52148.00;;;-144.14;94.85
7075;BME280;3578;51.568;6.932;2023-03-22T03:01:25;52111.94;;;-144.14;95.03
7075;BME280;3578;51.568;6.932;2023-03-22T03:03:56;52103.94;;;-144.14;95.25
7075;BME280;3578;51.568;6.932;2023-03-22T03:06:28;52099.91;;;-144.14;95.23
7075;BME280;3578;51.568;6.932;2023-03-22T03:08:59;52079.88;;;-144.14;95.49
7075;BME280;3578;51.568;6.932;2023-03-22T03:11:31;52065.84;;;-144.14;95.59
7075;BME280;3578;51.568;6.932;2023-03-22T03:13:58;52089.91;;;-144.14;95.58
7075;BME280;3578;51.568;6.932;2023-03-22T03:16:28;52119.94;;;-144.14;95.59
7075;BME280;3578;51.568;6.932;2023-03-22T03:19:06;52061.84;;;-144.14;95.59
7075;BME280;3578;51.568;6.932;2023-03-22T03:21:48;52079.88;;;-144.14;95.87
7075;BME280;3578;51.568;6.932;2023-03-22T03:24:21;52089.91;;;-144.14;95.88
7075;BME280;3578;51.568;6.932;2023-03-22T03:27:00;52055.84;;;-144.14;96.23
7075;BME280;3578;51.568;6.932;2023-03-22T03:29:36;52035.81;;;-144.14;96.25
7075;BME280;3578;51.568;6.932;2023-03-22T03:32:10;52043.81;;;-144.14;96.15
7075;BME280;3578;51.568;6.932;2023-03-22T03:34:45;52043.81;;;-144.14;96.23
7075;BME280;3578;51.568;6.932;2023-03-22T03:37:20;52039.81;;;-144.14;96.22
7075;BME280;3578;51.568;6.932;2023-03-22T03:39:51;52033.81;;;-144.14;96.19
7075;BME280;3578;51.568;6.932;2023-03-22T03:42:24;52067.88;;;-144.14;96.05
7075;BME280;3578;51.568;6.932;2023-03-22T03:44:54;52077.88;;;-144.14;95.99
7075;BME280;3578;51.568;6.932;2023-03-22T03:47:22;52081.88;;;-144.14;95.66
7075;BME280;3578;51.568;6.932;2023-03-22T03:49:51;52063.84;;;-144.14;95.72
7075;BME280;3578;51.568;6.932;2023-03-22T03:52:18;52075.88;;;-144.14;95.64
7075;BME280;3578;51.568;6.932;2023-03-22T03:54:49;52085.91;;;-144.14;95.70
7075;BME280;3578;51.568;6.932;2023-03-22T03:57:16;52019.78;;;-144.14;96.96
7075;BME280;3578;51.568;6.932;2023-03-22T03:59:45;52029.78;;;-144.14;97.42
7075;BME280;3578;51.568;6.932;2023-03-22T04:02:12;51999.75;;;-144.14;98.21
7075;BME280;3578;51.568;6.932;2023-03-22T04:04:39;51997.75;;;-144.14;98.55
7075;BME280;3578;51.568;6.932;2023-03-22T04:07:06;51985.72;;;-144.14;99.29
7075;BME280;3578;51.568;6.932;2023-03-22T04:09:36;51927.63;;;-144.14;100.00
7075;BME280;3578;51.568;6.932;2023-03-22T04:12:04;51897.56;;;-144.14;100.00
7075;BME280;3578;51.568;6.932;2023-03-22T04:14:31;51897.56;;;-144.14;99.53
7075;BME280;3578;51.568;6.932;2023-03-22T04:16:59;51927.63;;;-144.14;99.49
7075;BME280;3578;51.568;6.932;2023-03-22T04:19:26;51897.56;;;-144.14;99.19
7075;BME280;3578;51.568;6.932;2023-03-22T04:21:53;51919.63;;;-144.14;99.42
7075;BME280;3578;51.568;6.932;2023-03-22T04:24:21;51919.63;;;-144.14;99.38
7075;BME280;3578;51.568;6.932;2023-03-22T04:26:48;51897.56;;;-144.14;99.67
7075;BME280;3578;51.568;6.932;2023-03-22T04:29:15;51931.63;;;-144.14;99.39
7075;BME280;3578;51.568;6.932;2023-03-22T04:31:42;51887.56;;;-144.14;99.37
7075;BME280;3578;51.568;6.932;2023-03-22T04:34:11;51889.56;;;-144.14;99.57
7075;BME280;3578;51.568;6.932;2023-03-22T04:36:39;51895.56;;;-144.14;99.67
7075;BME280;3578;51.568;6.932;2023-03-22T04:39:08;51865.53;;;-144.14;99.76
7075;BME280;3578;51.568;6.932;2023-03-22T04:41:36;51895.56;;;-144.14;99.80
7075;BME280;3578;51.568;6.932;2023-03-22T04:44:05;51867.53;;;-144.14;99.85
7075;BME280;3578;51.568;6.932;2023-03-22T04:46:34;51899.59;;;-144.14;99.82
7075;BME280;3578;51.568;6.932;2023-03-22T04:49:02;51855.50;;;-144.14;99.95
7075;BME280;3578;51.568;6.932;2023-03-22T04:51:30;51783.41;;;-144.14;100.00
7075;BME280;3578;51.568;6.932;2023-03-22T04:53:58;51847.50;;;-144.14;100.00
7075;BME280;3578;51.568;6.932;2023-03-22T04:56:25;51867.53;;;-144.14;100.00
7075;BME280;3578;51.568;6.932;2023-03-22T04:58:52;51841.50;;;-144.14;99.98
7075;BME280;3578;51.568;6.932;2023-03-22T05:01:19;51847.50;;;-144.14;100.00
7075;BME280;3578;51.568;6.932;2023-03-22T05:03:46;51849.50;;;-144.14;100.00
7075;BME280;3578;51.568;6.932;2023-03-22T05:06:14;51853.50;;;-144.14;100.00
7075;BME280;3578;51.568;6.932;2023-03-22T05:08:42;51827.47;;;-144.14;100.00
7075;BME280;3578;51.568;6.932;2023-03-22T05:11:12;51851.50;;;-144.14;100.00
7075;BME280;3578;51.568;6.932;2023-03-22T05:13:41;51823.47;;;-144.14;100.00
7075;BME280;3578;51.568;6.932;2023-03-22T05:16:09;51807.44;;;-144.14;100.00
7075;BME280;3578;51.568;6.932;2023-03-22T05:18:36;51847.50;;;-144.14;100.00
7075;BME280;3578;51.568;6.932;2023-03-22T05:21:11;51869.53;;;-144.14;99.63
7075;BME280;3578;51.568;6.932;2023-03-22T05:23:41;51841.50;;;-144.14;99.55
7075;BME280;3578;51.568;6.932;2023-03-22T05:26:09;51807.44;;;-144.14;99.39
7075;BME280;3578;51.568;6.932;2023-03-22T05:28:41;51795.41;;;-144.14;99.23
7075;BME280;3578;51.568;6.932;2023-03-22T05:31:08;51907.59;;;-144.14;98.74
7075;BME280;3578;51.568;6.932;2023-03-22T05:33:39;51855.50;;;-144.14;98.76
7075;BME280;3578;51.568;6.932;2023-03-22T05:36:09;51869.53;;;-144.14;98.48
7075;BME280;3578;51.568;6.932;2023-03-22T05:38:37;51937.66;;;-144.14;98.29
7075;BME280;3578;51.568;6.932;2023-03-22T05:41:06;51943.66;;;-144.14;98.05
7075;BME280;3578;51.568;6.932;2023-03-22T05:43:33;51923.63;;;-144.14;97.84
7075;BME280;3578;51.568;6.932;2023-03-22T05:46:03;51959.69;;;-144.14;97.37
7075;BME280;3578;51.568;6.932;2023-03-22T05:48:31;51991.72;;;-144.14;96.92
7075;BME280;3578;51.568;6.932;2023-03-22T05:50:58;51961.69;;;-144.14;97.42
7075;BME280;3578;51.568;6.932;2023-03-22T05:53:25;51943.66;;;-144.14;97.88
7075;BME280;3578;51.568;6.932;2023-03-22T05:55:52;51907.59;;;-144.14;98.28
7075;BME280;3578;51.568;6.932;2023-03-22T05:58:23;51959.69;;;-144.14;98.07
7075;BME280;3578;51.568;6.932;2023-03-22T06:00:53;51983.72;;;-144.14;97.38
7075;BME280;3578;51.568;6.932;2023-03-22T06:03:21;52015.78;;;-144.14;96.46
7075;BME280;3578;51.568;6.932;2023-03-22T06:05:48;52061.84;;;-144.14;95.26
7075;BME280;3578;51.568;6.932;2023-03-22T06:08:16;52099.91;;;-144.14;94.84
7075;BME280;3578;51.568;6.932;2023-03-22T06:10:43;52107.94;;;-144.14;94.17
7075;BME280;3578;51.568;6.932;2023-03-22T06:13:10;52119.94;;;-144.14;93.74
7075;BME280;3578;51.568;6.932;2023-03-22T06:15:38;52160.03;;;-144.14;93.39
7075;BME280;3578;51.568;6.932;2023-03-22T06:18:06;52220.13;;;-144.14;92.86
7075;BME280;3578;51.568;6.932;2023-03-22T06:20:34;52190.06;;;-144.14;92.56
7075;BME280;3578;51.568;6.932;2023-03-22T06:23:01;52208.09;;;-144.14;92.13
7075;BME280;3578;51.568;6.932;2023-03-22T06:25:28;52216.13;;;-144.14;91.70
7075;BME280;3578;51.568;6.932;2023-03-22T06:27:55;52240.16;;;-144.14;91.08
7075;BME280;3578;51.568;6.932;2023-03-22T06:30:22;52244.16;;;-144.14;91.00
7075;BME280;3578;51.568;6.932;2023-03-22T06:32:51;52320.31;;;-144.14;90.12
7075;BME280;3578;51.568;6.932;2023-03-22T06:35:18;52310.28;;;-144.14;89.05
7075;BME280;3578;51.568;6.932;2023-03-22T06:37:45;52384.41;;;-144.14;88.89
7075;BME280;3578;51.568;6.932;2023-03-22T06:40:13;52324.31;;;-144.14;88.71
7075;BME280;3578;51.568;6.932;2023-03-22T06:42:41;52352.34;;;-144.14;88.78
7075;BME280;3578;51.568;6.932;2023-03-22T06:45:09;52356.38;;;-144.14;89.21
7075;BME280;3578;51.568;6.932;2023-03-22T06:47:39;52392.44;;;-144.14;88.91
7075;BME280;3578;51.568;6.932;2023-03-22T06:50:09;52358.38;;;-144.14;88.60
7075;BME280;3578;51.568;6.932;2023-03-22T06:52:37;52388.41;;;-144.14;88.34
7075;BME280;3578;51.568;6.932;2023-03-22T06:55:05;52388.41;;;-144.14;88.71
7075;BME280;3578;51.568;6.932;2023-03-22T06:57:47;52358.38;;;-144.14;87.83
7075;BME280;3578;51.568;6.932;2023-03-22T07:00:17;52408.47;;;-144.14;87.26
7075;BME280;3578;51.568;6.932;2023-03-22T07:02:48;52444.53;;;-144.14;87.39
7075;BME280;3578;51.568;6.932;2023-03-22T07:05:20;52438.50;;;-144.14;87.25
7075;BME280;3578;51.568;6.932;2023-03-22T07:07:47;52412.47;;;-144.14;86.95
7075;BME280;3578;51.568;6.932;2023-03-22T07:10:15;52476.59;;;-144.14;86.55
7075;BME280;3578;51.568;6.932;2023-03-22T07:12:42;52456.53;;;-144.14;86.37
7075;BME280;3578;51.568;6.932;2023-03-22T07:15:10;52466.56;;;-144.14;86.30
7075;BME280;3578;51.568;6.932;2023-03-22T07:17:37;52498.63;;;-144.14;86.20
7075;BME280;3578;51.568;6.932;2023-03-22T07:20:06;52498.63;;;-144.14;86.70
7075;BME280;3578;51.568;6.932;2023-03-22T07:22:34;52468.56;;;-144.14;86.75
7075;BME280;3578;51.568;6.932;2023-03-22T07:25:01;52566.75;;;-144.14;85.05
7075;BME280;3578;51.568;6.932;2023-03-22T07:27:28;52570.75;;;-144.14;84.73
7075;BME280;3578;51.568;6.932;2023-03-22T07:29:56;52622.84;;;-144.14;83.83
7075;BME280;3578;51.568;6.932;2023-03-22T07:32:23;52715.03;;;-144.14;82.19
7075;BME280;3578;51.568;6.932;2023-03-22T07:34:50;52759.09;;;-144.14;80.16
7075;BME280;3578;51.568;6.932;2023-03-22T07:37:17;52841.25;;;-144.14;79.91
7075;BME280;3578;51.568;6.932;2023-03-22T07:39:45;52957.50;;;-144.14;76.11
7075;BME280;3578;51.568;6.932;2023-03-22T07:42:12;53007.59;;;-144.14;76.57
7075;BME280;3578;51.568;6.932;2023-03-22T07:44:40;53031.63;;;-144.14;75.91
7075;BME280;3578;51.568;6.932;2023-03-22T07:47:07;53077.72;;;-144.14;75.20
7075;BME280;3578;51.568;6.932;2023-03-22T07:49:35;53053.69;;;-144.14;75.99
7075;BME280;3578;51.568;6.932;2023-03-22T07:52:02;53033.63;;;-144.14;75.92
7075;BME280;3578;51.568;6.932;2023-03-22T07:54:29;52997.56;;;-144.14;77.70
7075;BME280;3578;51.568;6.932;2023-03-22T07:56:57;53009.59;;;-144.14;77.77
7075;BME280;3578;51.568;6.932;2023-03-22T07:59:24;52973.53;;;-144.14;79.31
7075;BME280;3578;51.568;6.932;2023-03-22T08:01:51;52941.44;;;-144.14;80.56
7075;BME280;3578;51.568;6.932;2023-03-22T08:04:18;52923.41;;;-144.14;80.93
7075;BME280;3578;51.568;6.932;2023-03-22T08:06:47;52941.44;;;-144.14;81.56
7075;BME280;3578;51.568;6.932;2023-03-22T08:09:14;52959.50;;;-144.14;80.01
7075;BME280;3578;51.568;6.932;2023-03-22T08:11:41;52981.53;;;-144.14;80.72
7075;BME280;3578;51.568;6.932;2023-03-22T08:14:10;52941.44;;;-144.14;79.35
7075;BME280;3578;51.568;6.932;2023-03-22T08:16:37;52951.47;;;-144.14;79.43
7075;BME280;3578;51.568;6.932;2023-03-22T08:19:06;52999.56;;;-144.14;78.72
7075;BME280;3578;51.568;6.932;2023-03-22T08:21:33;53013.59;;;-144.14;78.23
7075;BME280;3578;51.568;6.932;2023-03-22T08:24:01;52993.56;;;-144.14;79.93
7075;BME280;3578;51.568;6.932;2023-03-22T08:26:28;53019.59;;;-144.14;77.20
7075;BME280;3578;51.568;6.932;2023-03-22T08:28:55;53041.66;;;-144.14;77.47
7075;BME280;3578;51.568;6.932;2023-03-22T08:31:24;53003.56;;;-144.14;77.21
7075;BME280;3578;51.568;6.932;2023-03-22T08:33:51;52969.50;;;-144.14;77.56
7075;BME280;3578;51.568;6.932;2023-03-22T08:36:20;52971.50;;;-144.14;77.27
7075;BME280;3578;51.568;6.932;2023-03-22T08:38:48;53033.63;;;-144.14;77.16
7075;BME280;3578;51.568;6.932;2023-03-22T08:41:15;53053.69;;;-144.14;76.42
7075;BME280;3578;51.568;6.932;2023-03-22T08:43:43;53069.72;;;-144.14;74.60
7075;BME280;3578;51.568;6.932;2023-03-22T08:46:10;53037.66;;;-144.14;75.33
7075;BME280;3578;51.568;6.932;2023-03-22T08:48:39;53045.66;;;-144.14;74.57
7075;BME280;3578;51.568;6.932;2023-03-22T08:51:06;53017.59;;;-144.14;77.19
7075;BME280;3578;51.568;6.932;2023-03-22T08:53:33;53019.59;;;-144.14;77.49
7075;BME280;3578;51.568;6.932;2023-03-22T08:56:00;53031.63;;;-144.14;76.94
7075;BME280;3578;51.568;6.932;2023-03-22T08:58:28;53041.66;;;-144.14;76.85
7075;BME280;3578;51.568;6.932;2023-03-22T09:00:55;53021.63;;;-144.14;76.38
7075;BME280;3578;51.568;6.932;2023-03-22T09:03:22;52991.56;;;-144.14;77.56
7075;BME280;3578;51.568;6.932;2023-03-22T09:05:51;53023.63;;;-144.14;77.10
7075;BME280;3578;51.568;6.932;2023-03-22T09:08:19;53017.59;;;-144.14;76.84
7075;BME280;3578;51.568;6.932;2023-03-22T09:10:46;53061.69;;;-144.14;75.84
7075;BME280;3578;51.568;6.932;2023-03-22T09:13:16;53077.72;;;-144.14;75.40
7075;BME280;3578;51.568;6.932;2023-03-22T09:15:43;53153.88;;;-144.14;73.04
7075;BME280;3578;51.568;6.932;2023-03-22T09:18:10;53246.06;;;-144.14;70.60
7075;BME280;3578;51.568;6.932;2023-03-22T09:20:38;53242.06;;;-144.14;67.63
7075;BME280;3578;51.568;6.932;2023-03-22T09:23:06;53216.00;;;-144.14;69.62
7075;BME280;3578;51.568;6.932;2023-03-22T09:25:33;53286.16;;;-144.14;69.57
7075;BME280;3578;51.568;6.932;2023-03-22T09:28:01;53330.25;;;-144.14;67.39
7075;BME280;3578;51.568;6.932;2023-03-22T09:30:29;53360.28;;;-144.14;64.75
7075;BME280;3578;51.568;6.932;2023-03-22T09:32:56;53350.28;;;-144.14;64.29
7075;BME280;3578;51.568;6.932;2023-03-22T09:35:23;53306.19;;;-144.14;64.94
7075;BME280;3578;51.568;6.932;2023-03-22T09:37:51;53298.16;;;-144.14;66.58
7075;BME280;3578;51.568;6.932;2023-03-22T09:40:21;53346.28;;;-144.14;65.75
7075;BME280;3578;51.568;6.932;2023-03-22T09:42:54;53378.34;;;-144.14;64.24
7075;BME280;3578;51.568;6.932;2023-03-22T09:45:29;53374.31;;;-144.14;63.29
7075;BME280;3578;51.568;6.932;2023-03-22T09:48:03;53358.28;;;-144.14;63.15
7075;BME280;3578;51.568;6.932;2023-03-22T09:50:38;53342.25;;;-144.14;65.42
7075;BME280;3578;51.568;6.932;2023-03-22T09:53:13;53354.28;;;-144.14;65.87
7075;BME280;3578;51.568;6.932;2023-03-22T09:55:46;53376.34;;;-144.14;66.43
7075;BME280;3578;51.568;6.932;2023-03-22T09:58:23;53378.34;;;-144.14;66.16
7075;BME280;3578;51.568;6.932;2023-03-22T10:00:56;53390.34;;;-144.14;65.10
7075;BME280;3578;51.568;6.932;2023-03-22T10:03:49;53374.31;;;-144.14;65.52
7075;BME280;3578;51.568;6.932;2023-03-22T10:06:23;53398.38;;;-144.14;64.57
7075;BME280;3578;51.568;6.932;2023-03-22T10:09:03;53382.34;;;-144.14;67.19
7075;BME280;3578;51.568;6.932;2023-03-22T10:11:41;53388.34;;;-144.14;65.79
7075;BME280;3578;51.568;6.932;2023-03-22T10:14:28;53328.22;;;-144.14;67.02
7075;BME280;3578;51.568;6.932;2023-03-22T10:16:58;53294.16;;;-144.14;67.04
7075;BME280;3578;51.568;6.932;2023-03-22T10:19:34;53458.50;;;-144.14;63.73
7075;BME280;3578;51.568;6.932;2023-03-22T10:22:03;53472.53;;;-144.14;65.50
7075;BME280;3578;51.568;6.932;2023-03-22T10:24:35;53500.59;;;-144.14;63.77
7075;BME280;3578;51.568;6.932;2023-03-22T10:27:13;53478.53;;;-144.14;64.44
7075;BME280;3578;51.568;6.932;2023-03-22T10:29:44;53462.50;;;-144.14;63.90
7075;BME280;3578;51.568;6.932;2023-03-22T10:32:15;53480.56;;;-144.14;63.12
7075;BME280;3578;51.568;6.932;2023-03-22T10:34:43;53468.53;;;-144.14;63.25
7075;BME280;3578;51.568;6.932;2023-03-22T10:37:15;53466.53;;;-144.14;64.41
7075;BME280;3578;51.568;6.932;2023-03-22T10:39:45;53470.53;;;-144.14;64.07
7075;BME280;3578;51.568;6.932;2023-03-22T10:42:18;53516.63;;;-144.14;63.49
7075;BME280;3578;51.568;6.932;2023-03-22T10:44:49;53446.47;;;-144.14;66.00
7075;BME280;3578;51.568;6.932;2023-03-22T10:47:25;53446.47;;;-144.14;64.28
7075;BME280;3578;51.568;6.932;2023-03-22T10:49:55;53462.50;;;-144.14;63.83
7075;BME280;3578;51.568;6.932;2023-03-22T10:52:37;53522.63;;;-144.14;63.76
7075;BME280;3578;51.568;6.932;2023-03-22T10:55:10;53484.56;;;-144.14;62.92
7075;BME280;3578;51.568;6.932;2023-03-22T10:57:40;53526.66;;;-144.14;62.57
7075;BME280;3578;51.568;6.932;2023-03-22T11:00:09;53580.75;;;-144.14;60.36
7075;BME280;3578;51.568;6.932;2023-03-22T11:02:47;53606.81;;;-144.14;59.89
7075;BME280;3578;51.568;6.932;2023-03-22T11:05:24;53554.72;;;-144.14;60.41
7075;BME280;3578;51.568;6.932;2023-03-22T11:07:52;53608.81;;;-144.14;61.23
7075;BME280;3578;51.568;6.932;2023-03-22T11:10:26;53588.78;;;-144.14;59.95
7075;BME280;3578;51.568;6.932;2023-03-22T11:13:12;53582.78;;;-144.14;58.90
7075;BME280;3578;51.568;6.932;2023-03-22T11:15:52;53532.66;;;-144.14;60.16
7075;BME280;3578;51.568;6.932;2023-03-22T11:18:20;53562.72;;;-144.14;60.63
7075;BME280;3578;51.568;6.932;2023-03-22T11:20:56;53530.66;;;-144.14;62.33
7075;BME280;3578;51.568;6.932;2023-03-22T11:23:25;53506.59;;;-144.14;62.75
7075;BME280;3578;51.568;6.932;2023-03-22T11:25:55;53494.56;;;-144.14;63.30
7075;BME280;3578;51.568;6.932;2023-03-22T11:28:33;53494.56;;;-144.14;61.48
7075;BME280;3578;51.568;6.932;2023-03-22T11:31:05;53534.66;;;-144.14;62.92
7075;BME280;3578;51.568;6.932;2023-03-22T11:33:34;53514.63;;;-144.14;62.33
7075;BME280;3578;51.568;6.932;2023-03-22T11:36:14;53472.53;;;-144.14;60.48
7075;BME280;3578;51.568;6.932;2023-03-22T11:38:42;53424.44;;;-144.14;64.66
7075;BME280;3578;51.568;6.932;2023-03-22T11:41:20;53402.38;;;-144.14;66.70
7075;BME280;3578;51.568;6.932;2023-03-22T11:43:53;53518.63;;;-144.14;66.34
7075;BME280;3578;51.568;6.932;2023-03-22T11:46:21;53510.63;;;-144.14;64.89
7075;BME280;3578;51.568;6.932;2023-03-22T11:48:51;53470.53;;;-144.14;63.82
7075;BME280;3578;51.568;6.932;2023-03-22T11:51:27;53482.56;;;-144.14;64.46
7075;BME280;3578;51.568;6.932;2023-03-22T11:54:05;53526.66;;;-144.14;65.81
7075;BME280;3578;51.568;6.932;2023-03-22T11:56:34;53488.56;;;-144.14;69.99
7075;BME280;3578;51.568;6.932;2023-03-22T11:59:12;53440.47;;;-144.14;73.11
7075;BME280;3578;51.568;6.932;2023-03-22T12:01:45;53418.41;;;-144.14;74.33
7075;BME280;3578;51.568;6.932;2023-03-22T12:04:19;53416.41;;;-144.14;73.90
7075;BME280;3578;51.568;6.932;2023-03-22T12:06:49;53374.31;;;-144.14;73.53
7075;BME280;3578;51.568;6.932;2023-03-22T12:09:27;53370.31;;;-144.14;73.77
7075;BME280;3578;51.568;6.932;2023-03-22T12:11:59;53402.38;;;-144.14;72.46
7075;BME280;3578;51.568;6.932;2023-03-22T12:14:35;53414.41;;;-144.14;74.44
7075;BME280;3578;51.568;6.932;2023-03-22T12:17:12;53446.47;;;-144.14;72.34
7075;BME280;3578;51.568;6.932;2023-03-22T12:19:51;53470.53;;;-144.14;69.34
7075;BME280;3578;51.568;6.932;2023-03-22T12:22:27;53428.44;;;-144.14;69.66
7075;BME280;3578;51.568;6.932;2023-03-22T12:24:55;53482.56;;;-144.14;67.86
7075;BME280;3578;51.568;6.932;2023-03-22T12:27:26;53534.66;;;-144.14;67.02
7075;BME280;3578;51.568;6.932;2023-03-22T12:30:00;53476.53;;;-144.14;67.73
7075;BME280;3578;51.568;6.932;2023-03-22T12:32:33;53506.59;;;-144.14;67.75
7075;BME280;3578;51.568;6.932;2023-03-22T12:35:03;53576.75;;;-144.14;64.46
7075;BME280;3578;51.568;6.932;2023-03-22T12:37:34;53480.56;;;-144.14;62.45
7075;BME280;3578;51.568;6.932;2023-03-22T12:40:06;53492.56;;;-144.14;63.46
7075;BME280;3578;51.568;6.932;2023-03-22T12:42:39;53506.59;;;-144.14;66.75
7075;BME280;3578;51.568;6.932;2023-03-22T12:45:14;53448.47;;;-144.14;66.46
7075;BME280;3578;51.568;6.932;2023-03-22T12:47:46;53462.50;;;-144.14;65.38
7075;BME280;3578;51.568;6.932;2023-03-22T12:50:17;53440.47;;;-144.14;65.91
7075;BME280;3578;51.568;6.932;2023-03-22T12:52:48;53442.47;;;-144.14;67.65
7075;BME280;3578;51.568;6.932;2023-03-22T12:55:22;53446.47;;;-144.14;67.01
7075;BME280;3578;51.568;6.932;2023-03-22T12:57:51;53434.44;;;-144.14;66.50
7075;BME280;3578;51.568;6.932;2023-03-22T13:00:27;53446.47;;;-144.14;65.74
7075;BME280;3578;51.568;6.932;2023-03-22T13:02:58;53474.53;;;-144.14;65.22
7075;BME280;3578;51.568;6.932;2023-03-22T13:05:31;53468.53;;;-144.14;66.37
7075;BME280;3578;51.568;6.932;2023-03-22T13:07:58;53468.53;;;-144.14;66.80
7075;BME280;3578;51.568;6.932;2023-03-22T13:11:04;53458.50;;;-144.14;67.03
7075;BME280;3578;51.568;6.932;2023-03-22T13:13:46;53474.53;;;-144.14;66.18
7075;BME280;3578;51.568;6.932;2023-03-22T13:16:20;53538.69;;;-144.14;64.59
7075;BME280;3578;51.568;6.932;2023-03-22T13:19:16;53498.59;;;-144.14;64.51
7075;BME280;3578;51.568;6.932;2023-03-22T13:21:43;53518.63;;;-144.14;64.14
7075;BME280;3578;51.568;6.932;2023-03-22T13:24:22;53558.72;;;-144.14;63.67